メインページ
METAR-TAF:

METAR-TAF

空港 :

ブジュンブラ, ブルンジ

ブジュンブラ国際空港

緯度: 03-19S, 経度: 029-19E, 海抜: 782m

現時点の気象観測

当レポートは13時間53分前の12:00(UTC)に作成
の風 20kt
気温 27°C
湿度 58%
気圧 1011 hPa
視程10km以上
高度2500ftの雲は散在している, 塔状積雲.
高度3000ftの雲はほとんどない, 積乱雲.
高度10000ftの千切れ雲あり

METAR: HBBA 171200Z 18020KT 9999 SCT025TCU FEW030CB BKN100 27/18 Q1011 NOSIG

時間: 03:53 (01:53 UTC)

予報

当レポートは8時間53分前の17:00(UTC)に作成
予報は17日の 18時(UTC)から 18日の 24時(UTC)まで有効
の風 kt、最大20ktの突風を伴う
視程10km以上
高度2500ftの雲はほとんどない
高度10000ftの雲は散在している
高度2500ftの雲はほとんどない
高度3000ftの雲はほとんどない, 積乱雲.
高度10000ftの千切れ雲あり
高度3000ftの雲はほとんどない
高度10000ftの雲は散在している
高度3000ftの雲はほとんどない
高度10000ftの雲は散在している

TAF: HBBA 171700Z 1718/1824 00000KT CAVOK BECMG1802/1804 36002KT 9999 FEW025 9999 SCT100 BECMG1807/1809 18010G20KT 9999 FEW025 FEW030CB BKN100 BECMG1815/1818 VRB03KT 9999 FEW030 SCT100 BECMG1820/1822 00000KT 9999 FEW030 SCT100

4,000以上の空港の気象観測と天気予報(METAR報とTAF報)

利用可能な観測所は地図上に黄色い丸と赤い丸で示す。

丸の上にカーソルを重ねると観測所名を参照できる。

次にクリックすると気象観測と天気予報を参照できる。

マップの切り替え:黒色「×」印の緑ボタンをクリックして拡大、「-」印の緑ボタンをクリックして縮小、緑色の三角印をクリックして隣りの地図に切り替え


METAR-TAF: